sensor_id;sensor_type;location;lat;lon;timestamp;temperature;humidity
18823;DHT22;9540;51.550;7.980;2022-10-16T00:00:47;14.20;99.90
18823;DHT22;9540;51.550;7.980;2022-10-16T00:03:14;14.20;99.90
18823;DHT22;9540;51.550;7.980;2022-10-16T00:05:42;14.20;99.90
18823;DHT22;9540;51.550;7.980;2022-10-16T00:08:10;14.20;99.90
18823;DHT22;9540;51.550;7.980;2022-10-16T00:10:39;14.20;99.90
18823;DHT22;9540;51.550;7.980;2022-10-16T00:13:07;14.20;99.90
18823;DHT22;9540;51.550;7.980;2022-10-16T00:15:34;14.20;99.90
18823;DHT22;9540;51.550;7.980;2022-10-16T00:18:03;14.20;99.90
18823;DHT22;9540;51.550;7.980;2022-10-16T00:20:34;14.20;99.90
18823;DHT22;9540;51.550;7.980;2022-10-16T00:23:02;14.20;99.90
18823;DHT22;9540;51.550;7.980;2022-10-16T00:25:30;14.20;99.90
18823;DHT22;9540;51.550;7.980;2022-10-16T00:28:00;14.30;99.90
18823;DHT22;9540;51.550;7.980;2022-10-16T00:30:27;14.20;99.90
18823;DHT22;9540;51.550;7.980;2022-10-16T00:32:54;14.20;99.90
18823;DHT22;9540;51.550;7.980;2022-10-16T00:35:21;14.20;99.90
18823;DHT22;9540;51.550;7.980;2022-10-16T00:37:48;14.20;99.90
18823;DHT22;9540;51.550;7.980;2022-10-16T00:40:15;14.20;99.90
18823;DHT22;9540;51.550;7.980;2022-10-16T00:42:42;14.20;99.90
18823;DHT22;9540;51.550;7.980;2022-10-16T00:45:11;14.20;99.90
18823;DHT22;9540;51.550;7.980;2022-10-16T00:47:40;14.20;99.90
18823;DHT22;9540;51.550;7.980;2022-10-16T00:50:21;14.20;99.90
18823;DHT22;9540;51.550;7.980;2022-10-16T00:52:50;14.20;99.90
18823;DHT22;9540;51.550;7.980;2022-10-16T00:55:18;14.10;99.90
18823;DHT22;9540;51.550;7.980;2022-10-16T00:57:46;14.10;99.90
18823;DHT22;9540;51.550;7.980;2022-10-16T01:00:18;14.10;99.90
18823;DHT22;9540;51.550;7.980;2022-10-16T01:02:52;14.10;99.90
18823;DHT22;9540;51.550;7.980;2022-10-16T01:05:20;14.10;99.90
18823;DHT22;9540;51.550;7.980;2022-10-16T01:07:56;14.10;99.90
18823;DHT22;9540;51.550;7.980;2022-10-16T01:10:30;14.00;99.90
18823;DHT22;9540;51.550;7.980;2022-10-16T01:13:02;14.00;99.90
18823;DHT22;9540;51.550;7.980;2022-10-16T01:15:35;14.00;99.90
18823;DHT22;9540;51.550;7.980;2022-10-16T01:18:08;14.00;99.90
18823;DHT22;9540;51.550;7.980;2022-10-16T01:20:39;14.00;99.90
18823;DHT22;9540;51.550;7.980;2022-10-16T01:23:18;13.90;99.90
18823;DHT22;9540;51.550;7.980;2022-10-16T01:25:57;13.90;99.90
18823;DHT22;9540;51.550;7.980;2022-10-16T01:28:32;13.90;99.90
18823;DHT22;9540;51.550;7.980;2022-10-16T01:31:01;13.90;99.90
18823;DHT22;9540;51.550;7.980;2022-10-16T01:33:34;13.80;99.90
18823;DHT22;9540;51.550;7.980;2022-10-16T01:36:09;13.90;99.90
18823;DHT22;9540;51.550;7.980;2022-10-16T01:38:38;13.90;99.90
18823;DHT22;9540;51.550;7.980;2022-10-16T01:41:09;13.90;99.90
18823;DHT22;9540;51.550;7.980;2022-10-16T01:43:42;13.90;99.90
18823;DHT22;9540;51.550;7.980;2022-10-16T01:46:13;13.80;99.90
18823;DHT22;9540;51.550;7.980;2022-10-16T01:48:41;13.70;99.90
18823;DHT22;9540;51.550;7.980;2022-10-16T01:51:11;13.70;99.90
18823;DHT22;9540;51.550;7.980;2022-10-16T01:53:39;13.70;99.90
18823;DHT22;9540;51.550;7.980;2022-10-16T01:56:09;13.70;99.90
18823;DHT22;9540;51.550;7.980;2022-10-16T01:58:42;13.70;99.90
18823;DHT22;9540;51.550;7.980;2022-10-16T02:01:11;13.70;99.90
18823;DHT22;9540;51.550;7.980;2022-10-16T02:03:42;13.70;99.90
18823;DHT22;9540;51.550;7.980;2022-10-16T02:06:09;13.70;99.90
18823;DHT22;9540;51.550;7.980;2022-10-16T02:08:36;13.80;99.90
18823;DHT22;9540;51.550;7.980;2022-10-16T02:11:06;13.80;99.90
18823;DHT22;9540;51.550;7.980;2022-10-16T02:13:38;13.80;99.90
18823;DHT22;9540;51.550;7.980;2022-10-16T02:16:09;13.80;99.90
18823;DHT22;9540;51.550;7.980;2022-10-16T02:18:37;13.80;99.90
18823;DHT22;9540;51.550;7.980;2022-10-16T02:21:11;13.70;99.90
18823;DHT22;9540;51.550;7.980;2022-10-16T02:23:47;13.80;99.90
18823;DHT22;9540;51.550;7.980;2022-10-16T02:26:21;13.80;99.90
18823;DHT22;9540;51.550;7.980;2022-10-16T02:28:55;13.70;99.90
18823;DHT22;9540;51.550;7.980;2022-10-16T02:31:27;13.80;99.90
18823;DHT22;9540;51.550;7.980;2022-10-16T02:33:55;13.70;99.90
18823;DHT22;9540;51.550;7.980;2022-10-16T02:36:23;13.70;99.90
18823;DHT22;9540;51.550;7.980;2022-10-16T02:38:50;13.70;99.90
18823;DHT22;9540;51.550;7.980;2022-10-16T02:41:19;13.70;99.90
18823;DHT22;9540;51.550;7.980;2022-10-16T02:43:47;13.70;99.90
18823;DHT22;9540;51.550;7.980;2022-10-16T02:46:14;13.70;99.90
18823;DHT22;9540;51.550;7.980;2022-10-16T02:48:43;13.70;99.90
18823;DHT22;9540;51.550;7.980;2022-10-16T02:51:10;13.70;99.90
18823;DHT22;9540;51.550;7.980;2022-10-16T02:53:37;13.70;99.90
18823;DHT22;9540;51.550;7.980;2022-10-16T02:56:04;13.70;99.90
18823;DHT22;9540;51.550;7.980;2022-10-16T02:58:31;13.70;99.90
18823;DHT22;9540;51.550;7.980;2022-10-16T03:00:58;13.70;99.90
18823;DHT22;9540;51.550;7.980;2022-10-16T03:03:25;13.70;99.90
18823;DHT22;9540;51.550;7.980;2022-10-16T03:05:53;13.70;99.90
18823;DHT22;9540;51.550;7.980;2022-10-16T03:08:20;13.60;99.90
18823;DHT22;9540;51.550;7.980;2022-10-16T03:10:49;13.60;99.90
18823;DHT22;9540;51.550;7.980;2022-10-16T03:13:16;13.60;99.90
18823;DHT22;9540;51.550;7.980;2022-10-16T03:15:46;13.60;99.90
18823;DHT22;9540;51.550;7.980;2022-10-16T03:18:13;13.60;99.90
18823;DHT22;9540;51.550;7.980;2022-10-16T03:20:41;13.60;99.90
18823;DHT22;9540;51.550;7.980;2022-10-16T03:23:10;13.60;99.90
18823;DHT22;9540;51.550;7.980;2022-10-16T03:25:37;13.60;99.90
18823;DHT22;9540;51.550;7.980;2022-10-16T03:28:04;13.70;99.90
18823;DHT22;9540;51.550;7.980;2022-10-16T03:30:31;13.70;99.90
18823;DHT22;9540;51.550;7.980;2022-10-16T03:32:58;13.70;99.90
18823;DHT22;9540;51.550;7.980;2022-10-16T03:35:26;13.70;99.90
18823;DHT22;9540;51.550;7.980;2022-10-16T03:37:53;13.70;99.90
18823;DHT22;9540;51.550;7.980;2022-10-16T03:40:21;13.70;99.90
18823;DHT22;9540;51.550;7.980;2022-10-16T03:42:48;13.70;99.90
18823;DHT22;9540;51.550;7.980;2022-10-16T03:45:15;13.70;99.90
18823;DHT22;9540;51.550;7.980;2022-10-16T03:47:42;13.70;99.90
18823;DHT22;9540;51.550;7.980;2022-10-16T03:50:09;13.70;99.90
18823;DHT22;9540;51.550;7.980;2022-10-16T03:52:36;13.70;99.90
18823;DHT22;9540;51.550;7.980;2022-10-16T03:55:03;13.70;99.90
18823;DHT22;9540;51.550;7.980;2022-10-16T03:57:32;13.70;99.90
18823;DHT22;9540;51.550;7.980;2022-10-16T03:59:59;13.60;99.90
18823;DHT22;9540;51.550;7.980;2022-10-16T04:02:26;13.60;99.90
18823;DHT22;9540;51.550;7.980;2022-10-16T04:04:53;13.50;99.90
18823;DHT22;9540;51.550;7.980;2022-10-16T04:07:20;13.50;99.90
18823;DHT22;9540;51.550;7.980;2022-10-16T04:09:47;13.60;99.90
18823;DHT22;9540;51.550;7.980;2022-10-16T04:12:14;13.50;99.90
18823;DHT22;9540;51.550;7.980;2022-10-16T04:14:42;13.60;99.90
18823;DHT22;9540;51.550;7.980;2022-10-16T04:17:09;13.60;99.90
18823;DHT22;9540;51.550;7.980;2022-10-16T04:19:36;13.60;99.90
18823;DHT22;9540;51.550;7.980;2022-10-16T04:22:03;13.60;99.90
18823;DHT22;9540;51.550;7.980;2022-10-16T04:24:30;13.70;99.90
18823;DHT22;9540;51.550;7.980;2022-10-16T04:26:57;13.70;99.90
18823;DHT22;9540;51.550;7.980;2022-10-16T04:29:24;13.70;99.90
18823;DHT22;9540;51.550;7.980;2022-10-16T04:31:53;13.70;99.90
18823;DHT22;9540;51.550;7.980;2022-10-16T04:34:20;13.70;99.90
18823;DHT22;9540;51.550;7.980;2022-10-16T04:36:47;13.70;99.90
18823;DHT22;9540;51.550;7.980;2022-10-16T04:39:15;13.60;99.90
18823;DHT22;9540;51.550;7.980;2022-10-16T04:41:42;13.50;99.90
18823;DHT22;9540;51.550;7.980;2022-10-16T04:44:09;13.50;99.90
18823;DHT22;9540;51.550;7.980;2022-10-16T04:46:36;13.50;99.90
18823;DHT22;9540;51.550;7.980;2022-10-16T04:49:04;13.50;99.90
18823;DHT22;9540;51.550;7.980;2022-10-16T04:51:31;13.40;99.90
18823;DHT22;9540;51.550;7.980;2022-10-16T04:53:58;13.40;99.90
18823;DHT22;9540;51.550;7.980;2022-10-16T04:56:25;13.40;99.90
18823;DHT22;9540;51.550;7.980;2022-10-16T04:58:52;13.40;99.90
18823;DHT22;9540;51.550;7.980;2022-10-16T05:01:19;13.50;99.90
18823;DHT22;9540;51.550;7.980;2022-10-16T05:03:46;13.50;99.90
18823;DHT22;9540;51.550;7.980;2022-10-16T05:06:14;13.50;99.90
18823;DHT22;9540;51.550;7.980;2022-10-16T05:08:41;13.50;99.90
18823;DHT22;9540;51.550;7.980;2022-10-16T05:11:08;13.40;99.90
18823;DHT22;9540;51.550;7.980;2022-10-16T05:13:35;13.40;99.90
18823;DHT22;9540;51.550;7.980;2022-10-16T05:16:02;13.40;99.90
18823;DHT22;9540;51.550;7.980;2022-10-16T05:18:29;13.40;99.90
18823;DHT22;9540;51.550;7.980;2022-10-16T05:20:56;13.30;99.90
18823;DHT22;9540;51.550;7.980;2022-10-16T05:23:25;13.30;99.90
18823;DHT22;9540;51.550;7.980;2022-10-16T05:25:53;13.40;99.90
18823;DHT22;9540;51.550;7.980;2022-10-16T05:28:21;13.30;99.90
18823;DHT22;9540;51.550;7.980;2022-10-16T05:30:48;13.30;99.90
18823;DHT22;9540;51.550;7.980;2022-10-16T05:33:15;13.30;99.90
18823;DHT22;9540;51.550;7.980;2022-10-16T05:35:42;13.30;99.90
18823;DHT22;9540;51.550;7.980;2022-10-16T05:38:09;13.30;99.90
18823;DHT22;9540;51.550;7.980;2022-10-16T05:40:37;13.30;99.90
18823;DHT22;9540;51.550;7.980;2022-10-16T05:43:04;13.30;99.90
18823;DHT22;9540;51.550;7.980;2022-10-16T05:45:31;13.30;99.90
18823;DHT22;9540;51.550;7.980;2022-10-16T05:48:00;13.40;99.90
18823;DHT22;9540;51.550;7.980;2022-10-16T05:50:27;13.40;99.90
18823;DHT22;9540;51.550;7.980;2022-10-16T05:52:54;13.50;99.90
18823;DHT22;9540;51.550;7.980;2022-10-16T05:55:21;13.50;99.90
18823;DHT22;9540;51.550;7.980;2022-10-16T05:57:49;13.50;99.90
18823;DHT22;9540;51.550;7.980;2022-10-16T06:00:16;13.50;99.90
18823;DHT22;9540;51.550;7.980;2022-10-16T06:02:43;13.40;99.90
18823;DHT22;9540;51.550;7.980;2022-10-16T06:05:10;13.30;99.90
18823;DHT22;9540;51.550;7.980;2022-10-16T06:07:37;13.30;99.90
18823;DHT22;9540;51.550;7.980;2022-10-16T06:10:06;13.20;99.90
18823;DHT22;9540;51.550;7.980;2022-10-16T06:12:37;13.20;99.90
18823;DHT22;9540;51.550;7.980;2022-10-16T06:15:11;13.30;99.90
18823;DHT22;9540;51.550;7.980;2022-10-16T06:17:53;13.30;99.90
18823;DHT22;9540;51.550;7.980;2022-10-16T06:20:36;13.30;99.90
18823;DHT22;9540;51.550;7.980;2022-10-16T06:23:09;13.30;99.90
18823;DHT22;9540;51.550;7.980;2022-10-16T06:25:37;13.40;99.90
18823;DHT22;9540;51.550;7.980;2022-10-16T06:28:09;13.40;99.90
18823;DHT22;9540;51.550;7.980;2022-10-16T06:30:48;13.40;99.90
18823;DHT22;9540;51.550;7.980;2022-10-16T06:33:21;13.50;99.90
18823;DHT22;9540;51.550;7.980;2022-10-16T06:35:48;13.50;99.90
18823;DHT22;9540;51.550;7.980;2022-10-16T06:38:20;13.60;99.90
18823;DHT22;9540;51.550;7.980;2022-10-16T06:40:54;13.60;99.90
18823;DHT22;9540;51.550;7.980;2022-10-16T06:43:22;13.60;99.90
18823;DHT22;9540;51.550;7.980;2022-10-16T06:45:55;13.70;99.90
18823;DHT22;9540;51.550;7.980;2022-10-16T06:48:31;13.70;99.90
18823;DHT22;9540;51.550;7.980;2022-10-16T06:51:08;13.70;99.90
18823;DHT22;9540;51.550;7.980;2022-10-16T06:53:47;13.80;99.90
18823;DHT22;9540;51.550;7.980;2022-10-16T06:56:23;13.90;99.90
18823;DHT22;9540;51.550;7.980;2022-10-16T06:59:04;13.90;99.90
18823;DHT22;9540;51.550;7.980;2022-10-16T07:01:49;14.00;99.90
18823;DHT22;9540;51.550;7.980;2022-10-16T07:04:27;14.10;99.90
18823;DHT22;9540;51.550;7.980;2022-10-16T07:07:11;14.20;99.90
18823;DHT22;9540;51.550;7.980;2022-10-16T07:09:55;14.40;99.90
18823;DHT22;9540;51.550;7.980;2022-10-16T07:12:33;14.50;99.90
18823;DHT22;9540;51.550;7.980;2022-10-16T07:15:13;14.60;99.90
18823;DHT22;9540;51.550;7.980;2022-10-16T07:17:50;14.70;99.90
18823;DHT22;9540;51.550;7.980;2022-10-16T07:20:17;14.80;99.90
18823;DHT22;9540;51.550;7.980;2022-10-16T07:22:44;14.80;99.90
18823;DHT22;9540;51.550;7.980;2022-10-16T07:25:11;14.90;99.90
18823;DHT22;9540;51.550;7.980;2022-10-16T07:27:38;14.90;99.90
18823;DHT22;9540;51.550;7.980;2022-10-16T07:30:06;15.00;99.90
18823;DHT22;9540;51.550;7.980;2022-10-16T07:32:33;15.20;99.90
18823;DHT22;9540;51.550;7.980;2022-10-16T07:35:02;15.40;99.90
18823;DHT22;9540;51.550;7.980;2022-10-16T07:37:29;15.60;99.90
18823;DHT22;9540;51.550;7.980;2022-10-16T07:39:56;15.90;99.90
18823;DHT22;9540;51.550;7.980;2022-10-16T07:42:23;16.20;99.90
18823;DHT22;9540;51.550;7.980;2022-10-16T07:44:50;16.40;99.90
18823;DHT22;9540;51.550;7.980;2022-10-16T07:47:17;16.60;99.90
18823;DHT22;9540;51.550;7.980;2022-10-16T07:49:44;16.60;99.90
18823;DHT22;9540;51.550;7.980;2022-10-16T07:52:13;16.60;99.90
18823;DHT22;9540;51.550;7.980;2022-10-16T07:54:40;16.50;99.90
18823;DHT22;9540;51.550;7.980;2022-10-16T07:57:07;16.50;99.90
18823;DHT22;9540;51.550;7.980;2022-10-16T07:59:34;16.60;99.90
18823;DHT22;9540;51.550;7.980;2022-10-16T08:02:01;16.60;99.90
18823;DHT22;9540;51.550;7.980;2022-10-16T08:04:28;16.50;99.90
18823;DHT22;9540;51.550;7.980;2022-10-16T08:06:55;16.60;99.90
18823;DHT22;9540;51.550;7.980;2022-10-16T08:09:24;16.50;99.90
18823;DHT22;9540;51.550;7.980;2022-10-16T08:11:51;16.40;99.90
18823;DHT22;9540;51.550;7.980;2022-10-16T08:14:18;16.40;99.90
18823;DHT22;9540;51.550;7.980;2022-10-16T08:16:45;16.30;99.90
18823;DHT22;9540;51.550;7.980;2022-10-16T08:19:12;16.40;99.90
18823;DHT22;9540;51.550;7.980;2022-10-16T08:21:39;16.30;99.90
18823;DHT22;9540;51.550;7.980;2022-10-16T08:24:06;16.10;99.90
18823;DHT22;9540;51.550;7.980;2022-10-16T08:26:35;16.00;99.90
18823;DHT22;9540;51.550;7.980;2022-10-16T08:29:02;15.90;99.90
18823;DHT22;9540;51.550;7.980;2022-10-16T08:31:29;15.80;99.90
18823;DHT22;9540;51.550;7.980;2022-10-16T08:33:56;15.80;99.90
18823;DHT22;9540;51.550;7.980;2022-10-16T08:36:23;16.00;99.90
18823;DHT22;9540;51.550;7.980;2022-10-16T08:38:50;16.30;99.90
18823;DHT22;9540;51.550;7.980;2022-10-16T08:41:49;16.50;99.90
18823;DHT22;9540;51.550;7.980;2022-10-16T08:47:19;16.90;99.90
18823;DHT22;9540;51.550;7.980;2022-10-16T08:49:56;17.10;99.90
18823;DHT22;9540;51.550;7.980;2022-10-16T08:52:28;17.30;99.90
18823;DHT22;9540;51.550;7.980;2022-10-16T08:54:56;17.40;99.90
18823;DHT22;9540;51.550;7.980;2022-10-16T08:57:25;17.40;99.90
18823;DHT22;9540;51.550;7.980;2022-10-16T08:59:53;17.40;99.90
18823;DHT22;9540;51.550;7.980;2022-10-16T09:02:31;17.50;99.90
18823;DHT22;9540;51.550;7.980;2022-10-16T09:05:21;17.50;99.90
18823;DHT22;9540;51.550;7.980;2022-10-16T09:07:58;17.60;99.90
18823;DHT22;9540;51.550;7.980;2022-10-16T09:10:34;17.50;99.90
18823;DHT22;9540;51.550;7.980;2022-10-16T09:13:16;17.80;99.90
18823;DHT22;9540;51.550;7.980;2022-10-16T09:15:49;18.40;99.90
18823;DHT22;9540;51.550;7.980;2022-10-16T09:18:25;19.20;99.90
18823;DHT22;9540;51.550;7.980;2022-10-16T09:20:57;19.60;99.90
18823;DHT22;9540;51.550;7.980;2022-10-16T09:23:29;19.20;99.90
18823;DHT22;9540;51.550;7.980;2022-10-16T09:25:58;18.90;99.90
18823;DHT22;9540;51.550;7.980;2022-10-16T09:28:26;18.60;99.90
18823;DHT22;9540;51.550;7.980;2022-10-16T09:30:53;18.40;99.90
18823;DHT22;9540;51.550;7.980;2022-10-16T09:33:24;18.20;99.90
18823;DHT22;9540;51.550;7.980;2022-10-16T09:35:53;18.10;99.90
18823;DHT22;9540;51.550;7.980;2022-10-16T09:38:24;18.10;99.90
18823;DHT22;9540;51.550;7.980;2022-10-16T09:40:52;18.00;99.90
18823;DHT22;9540;51.550;7.980;2022-10-16T09:43:22;18.00;99.90
18823;DHT22;9540;51.550;7.980;2022-10-16T09:46:00;17.90;99.90
18823;DHT22;9540;51.550;7.980;2022-10-16T09:48:31;17.70;99.90
18823;DHT22;9540;51.550;7.980;2022-10-16T09:51:02;17.60;99.90
18823;DHT22;9540;51.550;7.980;2022-10-16T09:53:40;17.50;99.90
18823;DHT22;9540;51.550;7.980;2022-10-16T09:56:07;17.50;99.90
18823;DHT22;9540;51.550;7.980;2022-10-16T09:58:34;17.50;99.90
18823;DHT22;9540;51.550;7.980;2022-10-16T10:01:04;17.40;99.90
18823;DHT22;9540;51.550;7.980;2022-10-16T10:03:37;17.50;99.90
18823;DHT22;9540;51.550;7.980;2022-10-16T10:06:15;17.50;99.90
18823;DHT22;9540;51.550;7.980;2022-10-16T10:08:54;17.60;99.90
18823;DHT22;9540;51.550;7.980;2022-10-16T10:11:37;17.60;99.90
18823;DHT22;9540;51.550;7.980;2022-10-16T10:14:05;17.60;99.90
18823;DHT22;9540;51.550;7.980;2022-10-16T10:16:33;17.70;99.90
18823;DHT22;9540;51.550;7.980;2022-10-16T10:19:00;17.70;99.90
18823;DHT22;9540;51.550;7.980;2022-10-16T10:21:27;17.70;99.90
18823;DHT22;9540;51.550;7.980;2022-10-16T10:23:57;17.70;99.90
18823;DHT22;9540;51.550;7.980;2022-10-16T10:26:28;17.80;99.90
18823;DHT22;9540;51.550;7.980;2022-10-16T10:29:02;17.90;99.90
18823;DHT22;9540;51.550;7.980;2022-10-16T10:31:38;17.90;99.90
18823;DHT22;9540;51.550;7.980;2022-10-16T10:34:19;18.00;99.90
18823;DHT22;9540;51.550;7.980;2022-10-16T10:36:58;18.10;99.90
18823;DHT22;9540;51.550;7.980;2022-10-16T10:39:34;18.20;99.90
18823;DHT22;9540;51.550;7.980;2022-10-16T10:42:20;18.20;99.90
18823;DHT22;9540;51.550;7.980;2022-10-16T10:44:57;18.20;99.90
18823;DHT22;9540;51.550;7.980;2022-10-16T10:47:35;18.20;99.90
18823;DHT22;9540;51.550;7.980;2022-10-16T10:50:08;18.10;99.90
18823;DHT22;9540;51.550;7.980;2022-10-16T10:52:43;18.10;99.90
18823;DHT22;9540;51.550;7.980;2022-10-16T10:55:18;18.20;99.90
18823;DHT22;9540;51.550;7.980;2022-10-16T10:58:01;18.20;99.90
18823;DHT22;9540;51.550;7.980;2022-10-16T11:00:42;18.10;99.90
18823;DHT22;9540;51.550;7.980;2022-10-16T11:03:26;18.10;99.90
18823;DHT22;9540;51.550;7.980;2022-10-16T11:05:57;18.10;99.90
18823;DHT22;9540;51.550;7.980;2022-10-16T11:08:28;18.20;99.90
18823;DHT22;9540;51.550;7.980;2022-10-16T11:11:02;18.20;99.90
18823;DHT22;9540;51.550;7.980;2022-10-16T11:13:33;18.10;99.90
18823;DHT22;9540;51.550;7.980;2022-10-16T11:16:06;18.00;99.90
18823;DHT22;9540;51.550;7.980;2022-10-16T11:18:46;18.00;99.90
18823;DHT22;9540;51.550;7.980;2022-10-16T11:21:16;18.00;99.90
18823;DHT22;9540;51.550;7.980;2022-10-16T11:23:50;18.10;99.90
18823;DHT22;9540;51.550;7.980;2022-10-16T11:26:23;18.20;99.90
18823;DHT22;9540;51.550;7.980;2022-10-16T11:28:53;18.30;99.90
18823;DHT22;9540;51.550;7.980;2022-10-16T11:31:27;18.30;99.90
18823;DHT22;9540;51.550;7.980;2022-10-16T11:34:01;18.30;99.90
18823;DHT22;9540;51.550;7.980;2022-10-16T11:36:35;18.40;99.90
18823;DHT22;9540;51.550;7.980;2022-10-16T11:39:11;18.50;99.90
18823;DHT22;9540;51.550;7.980;2022-10-16T11:41:45;18.50;99.90
18823;DHT22;9540;51.550;7.980;2022-10-16T11:44:38;18.60;99.90
18823;DHT22;9540;51.550;7.980;2022-10-16T11:47:19;18.60;99.90
18823;DHT22;9540;51.550;7.980;2022-10-16T11:49:51;18.60;99.90
18823;DHT22;9540;51.550;7.980;2022-10-16T11:52:24;18.60;99.90
18823;DHT22;9540;51.550;7.980;2022-10-16T11:54:55;18.60;99.90
18823;DHT22;9540;51.550;7.980;2022-10-16T11:57:26;18.60;99.90
18823;DHT22;9540;51.550;7.980;2022-10-16T11:59:57;18.70;99.90
18823;DHT22;9540;51.550;7.980;2022-10-16T12:02:32;18.80;99.90
18823;DHT22;9540;51.550;7.980;2022-10-16T12:05:14;18.80;99.90
18823;DHT22;9540;51.550;7.980;2022-10-16T12:07:49;18.90;99.90
18823;DHT22;9540;51.550;7.980;2022-10-16T12:10:21;18.90;99.90
18823;DHT22;9540;51.550;7.980;2022-10-16T12:12:48;19.10;99.90
18823;DHT22;9540;51.550;7.980;2022-10-16T12:15:22;19.30;99.90
18823;DHT22;9540;51.550;7.980;2022-10-16T12:17:49;19.20;99.90
18823;DHT22;9540;51.550;7.980;2022-10-16T12:20:27;19.10;99.90
18823;DHT22;9540;51.550;7.980;2022-10-16T12:22:58;19.00;99.90
18823;DHT22;9540;51.550;7.980;2022-10-16T12:25:27;19.00;99.90
18823;DHT22;9540;51.550;7.980;2022-10-16T12:28:05;19.00;99.90
18823;DHT22;9540;51.550;7.980;2022-10-16T12:30:35;19.00;99.90
18823;DHT22;9540;51.550;7.980;2022-10-16T12:33:04;19.10;99.90
18823;DHT22;9540;51.550;7.980;2022-10-16T12:35:35;19.10;99.90
18823;DHT22;9540;51.550;7.980;2022-10-16T12:38:16;19.10;99.90
18823;DHT22;9540;51.550;7.980;2022-10-16T12:40:45;19.00;99.90
18823;DHT22;9540;51.550;7.980;2022-10-16T12:43:35;19.10;99.90
18823;DHT22;9540;51.550;7.980;2022-10-16T12:46:04;19.10;99.90
18823;DHT22;9540;51.550;7.980;2022-10-16T12:48:32;19.10;99.90
18823;DHT22;9540;51.550;7.980;2022-10-16T12:51:11;19.00;99.90
18823;DHT22;9540;51.550;7.980;2022-10-16T12:53:39;19.00;99.90
18823;DHT22;9540;51.550;7.980;2022-10-16T12:56:14;19.00;99.90
18823;DHT22;9540;51.550;7.980;2022-10-16T12:58:53;18.90;99.90
18823;DHT22;9540;51.550;7.980;2022-10-16T13:01:31;18.90;99.90
18823;DHT22;9540;51.550;7.980;2022-10-16T13:04:10;19.00;99.90
18823;DHT22;9540;51.550;7.980;2022-10-16T13:06:47;19.00;99.90
18823;DHT22;9540;51.550;7.980;2022-10-16T13:09:38;18.90;99.90
18823;DHT22;9540;51.550;7.980;2022-10-16T13:12:16;18.80;99.90
18823;DHT22;9540;51.550;7.980;2022-10-16T13:15:20;18.80;99.90
18823;DHT22;9540;51.550;7.980;2022-10-16T13:17:57;18.80;99.90
18823;DHT22;9540;51.550;7.980;2022-10-16T13:20:33;18.90;99.90
18823;DHT22;9540;51.550;7.980;2022-10-16T13:23:13;18.80;99.90
18823;DHT22;9540;51.550;7.980;2022-10-16T13:25:52;18.80;99.90
18823;DHT22;9540;51.550;7.980;2022-10-16T13:28:27;18.80;99.90
18823;DHT22;9540;51.550;7.980;2022-10-16T13:30:57;18.90;99.90
18823;DHT22;9540;51.550;7.980;2022-10-16T13:33:31;19.10;99.90
18823;DHT22;9540;51.550;7.980;2022-10-16T13:35:59;19.30;99.90
18823;DHT22;9540;51.550;7.980;2022-10-16T13:38:30;19.40;99.90
18823;DHT22;9540;51.550;7.980;2022-10-16T13:40:58;19.50;99.90
18823;DHT22;9540;51.550;7.980;2022-10-16T13:43:28;19.60;99.90
18823;DHT22;9540;51.550;7.980;2022-10-16T13:45:58;19.70;99.90
18823;DHT22;9540;51.550;7.980;2022-10-16T13:48:25;19.70;99.90
18823;DHT22;9540;51.550;7.980;2022-10-16T13:51:10;19.70;99.90
18823;DHT22;9540;51.550;7.980;2022-10-16T13:53:40;19.80;99.90
18823;DHT22;9540;51.550;7.980;2022-10-16T13:56:11;19.80;99.90
18823;DHT22;9540;51.550;7.980;2022-10-16T13:58:39;19.70;99.90
18823;DHT22;9540;51.550;7.980;2022-10-16T14:01:15;19.70;99.90
18823;DHT22;9540;51.550;7.980;2022-10-16T14:03:44;19.60;99.90
18823;DHT22;9540;51.550;7.980;2022-10-16T14:06:13;19.50;99.90
18823;DHT22;9540;51.550;7.980;2022-10-16T14:08:46;19.40;99.90
18823;DHT22;9540;51.550;7.980;2022-10-16T14:11:20;19.40;99.90
18823;DHT22;9540;51.550;7.980;2022-10-16T14:13:48;19.40;99.90
18823;DHT22;9540;51.550;7.980;2022-10-16T14:16:18;19.30;99.90
18823;DHT22;9540;51.550;7.980;2022-10-16T14:18:52;19.30;99.90
18823;DHT22;9540;51.550;7.980;2022-10-16T14:21:20;19.30;99.90
18823;DHT22;9540;51.550;7.980;2022-10-16T14:23:49;19.40;99.90
18823;DHT22;9540;51.550;7.980;2022-10-16T14:26:18;19.40;99.90
18823;DHT22;9540;51.550;7.980;2022-10-16T14:28:46;19.50;99.90
18823;DHT22;9540;51.550;7.980;2022-10-16T14:31:29;19.50;99.90
18823;DHT22;9540;51.550;7.980;2022-10-16T14:33:56;19.50;99.90
18823;DHT22;9540;51.550;7.980;2022-10-16T14:36:24;19.60;99.90
18823;DHT22;9540;51.550;7.980;2022-10-16T14:38:59;19.50;99.90
18823;DHT22;9540;51.550;7.980;2022-10-16T14:41:28;19.30;99.90
18823;DHT22;9540;51.550;7.980;2022-10-16T14:44:00;19.20;99.90
18823;DHT22;9540;51.550;7.980;2022-10-16T14:46:31;19.00;99.90
18823;DHT22;9540;51.550;7.980;2022-10-16T14:49:03;18.90;99.90
18823;DHT22;9540;51.550;7.980;2022-10-16T14:51:31;18.90;99.90
18823;DHT22;9540;51.550;7.980;2022-10-16T14:53:59;18.90;99.90
18823;DHT22;9540;51.550;7.980;2022-10-16T14:56:30;19.00;99.90
18823;DHT22;9540;51.550;7.980;2022-10-16T14:58:57;19.00;99.90
18823;DHT22;9540;51.550;7.980;2022-10-16T15:01:24;19.00;99.90
18823;DHT22;9540;51.550;7.980;2022-10-16T15:03:51;18.90;99.90
18823;DHT22;9540;51.550;7.980;2022-10-16T15:06:20;18.70;99.90
18823;DHT22;9540;51.550;7.980;2022-10-16T15:08:48;18.50;99.90
18823;DHT22;9540;51.550;7.980;2022-10-16T15:11:17;18.40;99.90
18823;DHT22;9540;51.550;7.980;2022-10-16T15:13:45;18.20;99.90
18823;DHT22;9540;51.550;7.980;2022-10-16T15:16:14;18.10;99.90
18823;DHT22;9540;51.550;7.980;2022-10-16T15:18:41;18.00;99.90
18823;DHT22;9540;51.550;7.980;2022-10-16T15:21:24;17.90;99.90
18823;DHT22;9540;51.550;7.980;2022-10-16T15:23:52;18.00;99.90
18823;DHT22;9540;51.550;7.980;2022-10-16T15:26:21;18.00;99.90
18823;DHT22;9540;51.550;7.980;2022-10-16T15:28:48;17.90;99.90
18823;DHT22;9540;51.550;7.980;2022-10-16T15:31:15;17.90;99.90
18823;DHT22;9540;51.550;7.980;2022-10-16T15:33:42;17.80;99.90
18823;DHT22;9540;51.550;7.980;2022-10-16T15:36:09;17.70;99.90
18823;DHT22;9540;51.550;7.980;2022-10-16T15:38:36;17.60;99.90
18823;DHT22;9540;51.550;7.980;2022-10-16T15:41:03;17.40;99.90
18823;DHT22;9540;51.550;7.980;2022-10-16T15:43:32;17.30;99.90
18823;DHT22;9540;51.550;7.980;2022-10-16T15:46:01;17.20;99.90
18823;DHT22;9540;51.550;7.980;2022-10-16T15:48:29;17.00;99.90
18823;DHT22;9540;51.550;7.980;2022-10-16T15:50:56;16.90;99.90
18823;DHT22;9540;51.550;7.980;2022-10-16T15:53:23;16.80;99.90
18823;DHT22;9540;51.550;7.980;2022-10-16T15:55:50;16.70;99.90
18823;DHT22;9540;51.550;7.980;2022-10-16T15:58:17;16.60;99.90
18823;DHT22;9540;51.550;7.980;2022-10-16T16:00:53;16.50;99.90
18823;DHT22;9540;51.550;7.980;2022-10-16T16:03:20;16.50;99.90
18823;DHT22;9540;51.550;7.980;2022-10-16T16:05:47;16.50;99.90
18823;DHT22;9540;51.550;7.980;2022-10-16T16:08:14;16.40;99.90
18823;DHT22;9540;51.550;7.980;2022-10-16T16:10:42;16.40;99.90